Time;durP1;ratioP1;P1;durP2;ratioP2;P2;SDS_P1;SDS_P2;PMS_P1;PMS_P2;Temp;Humidity;BMP_temperature;BMP_pressure;BME280_temperature;BME280_humidity;BME280_pressure;Samples;Min_cycle;Max_cycle;Signal;HPM_P1;HPM_P2
2023/01/12 00:01:28;;;;;;;2.85;1.02;;;;;;;;;;5006370;28;20026;-80
2023/01/12 00:03:54;;;;;;;1.02;0.57;;;;;;;;;;5016742;28;20061;-79
2023/01/12 00:06:21;;;;;;;1.63;0.60;;;;;;;;;;5053743;28;20024;-80
2023/01/12 00:08:48;;;;;;;1.55;0.50;;;;;;;;;;5019210;28;20038;-80
2023/01/12 00:11:15;;;;;;;0.95;0.40;;;;;;;;;;4999405;28;20475;-81
2023/01/12 00:13:41;;;;;;;1.88;0.47;;;;;;;;;;4999094;28;20033;-80
2023/01/12 00:18:57;;;;;;;2.33;0.55;;;;;;;;;;4999959;28;20118;-79
2023/01/12 00:21:23;;;;;;;1.45;0.98;;;;;;;;;;4999219;28;20030;-80
2023/01/12 00:23:49;;;;;;;0.70;0.47;;;;;;;;;;4998224;28;20034;-81
2023/01/12 00:26:16;;;;;;;3.67;0.60;;;;;;;;;;4999437;28;20030;-80
2023/01/12 00:28:42;;;;;;;3.75;0.52;;;;;;;;;;4999331;28;20022;-80
2023/01/12 00:31:09;;;;;;;1.85;0.47;;;;;;;;;;5007563;28;20393;-79
2023/01/12 00:33:36;;;;;;;0.70;0.45;;;;;;;;;;5007646;28;20062;-79
2023/01/12 00:36:03;;;;;;;2.63;0.40;;;;;;;;;;5011250;28;20022;-78
2023/01/12 00:38:29;;;;;;;1.00;0.63;;;;;;;;;;5025052;28;20022;-79
2023/01/12 00:40:56;;;;;;;2.15;0.60;;;;;;;;;;4999515;28;20102;-80
2023/01/12 00:46:08;;;;;;;2.10;0.70;;;;;;;;;;4998238;28;20030;-79
2023/01/12 00:48:34;;;;;;;1.73;0.80;;;;;;;;;;4998491;28;20109;-80
2023/01/12 00:51:03;;;;;;;1.98;0.63;;;;;;;;;;5013646;28;20053;-80
2023/01/12 00:53:29;;;;;;;1.55;0.73;;;;;;;;;;4998595;28;20041;-80
2023/01/12 00:56:00;;;;;;;1.45;0.80;;;;;;;;;;4997485;28;20057;-79
2023/01/12 00:58:27;;;;;;;2.88;1.10;;;;;;;;;;4998029;28;20105;-80
2023/01/12 01:00:53;;;;;;;2.30;1.02;;;;;;;;;;5006336;28;20026;-80
2023/01/12 01:03:19;;;;;;;3.22;0.93;;;;;;;;;;5018458;28;20025;-80
2023/01/12 01:05:45;;;;;;;6.50;1.30;;;;;;;;;;5017861;28;20038;-80
2023/01/12 01:08:12;;;;;;;2.25;0.88;;;;;;;;;;5000404;28;20029;-79
2023/01/12 01:10:38;;;;;;;3.35;0.98;;;;;;;;;;4997962;28;20046;-78
2023/01/12 01:13:04;;;;;;;2.35;1.27;;;;;;;;;;5013283;28;20022;-80
2023/01/12 01:15:30;;;;;;;3.55;0.88;;;;;;;;;;5013081;28;20090;-78
2023/01/12 01:17:56;;;;;;;4.63;1.20;;;;;;;;;;4998586;28;20030;-79
2023/01/12 01:20:22;;;;;;;2.50;1.10;;;;;;;;;;4998685;28;20491;-80
2023/01/12 01:22:48;;;;;;;3.90;1.33;;;;;;;;;;5015756;28;20029;-80
2023/01/12 01:25:14;;;;;;;3.08;1.10;;;;;;;;;;5016798;28;20029;-79
2023/01/12 01:27:40;;;;;;;3.75;0.90;;;;;;;;;;5019867;28;20033;-79
2023/01/12 01:30:07;;;;;;;3.65;1.10;;;;;;;;;;5037903;28;20030;-80
2023/01/12 01:32:33;;;;;;;4.45;1.27;;;;;;;;;;5011030;28;20030;-80
2023/01/12 01:34:59;;;;;;;9.25;1.15;;;;;;;;;;5019046;28;20062;-80
2023/01/12 01:37:25;;;;;;;5.30;1.13;;;;;;;;;;5012355;28;20022;-80
2023/01/12 01:39:51;;;;;;;1.40;0.82;;;;;;;;;;5001525;28;20093;-80
2023/01/12 01:42:26;;;;;;;3.78;1.10;;;;;;;;;;5004051;28;20033;-79
2023/01/12 01:44:54;;;;;;;5.88;1.17;;;;;;;;;;5005029;28;20030;-78
2023/01/12 01:47:25;;;;;;;4.28;0.90;;;;;;;;;;5010622;28;20033;-80
2023/01/12 01:49:53;;;;;;;2.40;0.95;;;;;;;;;;5021143;28;20030;-80
2023/01/12 01:52:19;;;;;;;3.28;0.82;;;;;;;;;;5029927;28;20042;-79
2023/01/12 01:54:51;;;;;;;2.78;0.90;;;;;;;;;;5041451;28;20020;-79
2023/01/12 01:57:18;;;;;;;3.13;0.90;;;;;;;;;;5025760;28;20046;-80
2023/01/12 01:59:48;;;;;;;5.30;1.00;;;;;;;;;;5021074;28;20469;-81
2023/01/12 02:02:14;;;;;;;3.25;0.93;;;;;;;;;;5019503;28;20064;-79
2023/01/12 02:04:41;;;;;;;2.95;0.93;;;;;;;;;;5021075;28;20057;-78
2023/01/12 02:07:07;;;;;;;6.88;1.27;;;;;;;;;;5005137;28;20586;-80
2023/01/12 02:09:33;;;;;;;2.80;0.88;;;;;;;;;;5001830;28;20093;-79
2023/01/12 02:17:42;;;;;;;3.97;0.80;;;;;;;;;;5005468;28;20045;-79
2023/01/12 02:20:26;;;;;;;2.75;0.70;;;;;;;;;;5001839;28;20026;-79
2023/01/12 02:22:55;;;;;;;3.20;0.85;;;;;;;;;;5002047;28;20033;-80
2023/01/12 02:25:27;;;;;;;6.50;0.75;;;;;;;;;;5001551;28;20078;-80
2023/01/12 02:28:05;;;;;;;7.75;0.82;;;;;;;;;;5001145;28;20384;-80
2023/01/12 02:30:51;;;;;;;2.92;0.70;;;;;;;;;;5001845;28;20022;-80
2023/01/12 02:33:32;;;;;;;2.88;0.73;;;;;;;;;;5004025;28;20026;-80
2023/01/12 02:36:01;;;;;;;4.40;0.85;;;;;;;;;;5014402;28;20026;-80
2023/01/12 02:38:39;;;;;;;2.97;0.80;;;;;;;;;;4999784;28;20201;-78
2023/01/12 02:44:17;;;;;;;3.97;0.70;;;;;;;;;;4992259;28;20041;-80
2023/01/12 02:46:46;;;;;;;2.85;0.57;;;;;;;;;;5023729;28;20121;-80
2023/01/12 02:49:15;;;;;;;6.57;1.30;;;;;;;;;;4999948;28;20109;-79
2023/01/12 02:51:47;;;;;;;8.93;0.88;;;;;;;;;;5001111;28;20037;-80
2023/01/12 02:54:15;;;;;;;3.83;1.05;;;;;;;;;;5009182;28;20061;-80
2023/01/12 02:56:44;;;;;;;1.77;0.90;;;;;;;;;;5007912;28;20103;-79
2023/01/12 02:59:29;;;;;;;8.75;0.85;;;;;;;;;;5022098;28;20033;-80
2023/01/12 03:01:57;;;;;;;3.88;1.08;;;;;;;;;;5007984;28;20030;-78
2023/01/12 03:04:24;;;;;;;5.70;0.77;;;;;;;;;;5009796;28;20026;-79
2023/01/12 03:06:56;;;;;;;6.25;0.93;;;;;;;;;;5010183;28;20037;-79
2023/01/12 03:09:24;;;;;;;2.38;0.65;;;;;;;;;;5001046;28;20106;-81
2023/01/12 03:11:52;;;;;;;3.25;0.90;;;;;;;;;;5001012;28;20467;-80
2023/01/12 03:14:19;;;;;;;2.40;1.00;;;;;;;;;;5000073;28;20026;-79
2023/01/12 03:16:45;;;;;;;4.75;1.10;;;;;;;;;;5005756;28;20034;-80
2023/01/12 03:19:15;;;;;;;5.03;0.80;;;;;;;;;;5027954;28;20100;-80
2023/01/12 03:21:54;;;;;;;3.63;0.80;;;;;;;;;;5020955;28;20374;-80
2023/01/12 03:24:32;;;;;;;2.72;0.40;;;;;;;;;;5019034;28;20239;-81
2023/01/12 03:27:21;;;;;;;4.05;0.85;;;;;;;;;;5001698;28;20506;-80
2023/01/12 03:29:51;;;;;;;4.82;0.75;;;;;;;;;;4991169;28;20074;-79
2023/01/12 03:32:19;;;;;;;3.92;0.65;;;;;;;;;;5001221;28;20503;-79
2023/01/12 03:34:46;;;;;;;6.03;1.10;;;;;;;;;;4999825;28;20022;-78
2023/01/12 03:37:12;;;;;;;7.72;1.30;;;;;;;;;;5001527;28;20475;-79
2023/01/12 03:39:50;;;;;;;4.65;1.08;;;;;;;;;;5002304;28;20034;-79
2023/01/12 03:42:16;;;;;;;4.20;1.05;;;;;;;;;;4999652;28;20046;-79
2023/01/12 03:44:50;;;;;;;2.75;0.73;;;;;;;;;;4998937;28;20035;-80
2023/01/12 03:47:20;;;;;;;5.57;0.80;;;;;;;;;;5013283;28;20033;-80
2023/01/12 03:50:01;;;;;;;2.85;0.88;;;;;;;;;;5018747;28;20026;-79
2023/01/12 03:52:28;;;;;;;2.80;0.65;;;;;;;;;;5018709;28;20029;-79
2023/01/12 03:54:55;;;;;;;6.03;2.25;;;;;;;;;;5034344;28;20049;-78
2023/01/12 03:57:22;;;;;;;5.50;0.73;;;;;;;;;;5012912;28;20045;-79
2023/01/12 03:59:48;;;;;;;5.80;1.23;;;;;;;;;;5020917;28;20026;-80
2023/01/12 04:02:14;;;;;;;8.05;1.10;;;;;;;;;;5019472;28;20064;-79
2023/01/12 04:04:40;;;;;;;3.63;0.50;;;;;;;;;;5019175;28;20494;-79
2023/01/12 04:07:06;;;;;;;1.75;0.80;;;;;;;;;;5024203;28;20026;-79
2023/01/12 04:09:32;;;;;;;3.55;0.93;;;;;;;;;;5004180;28;20029;-80
2023/01/12 04:12:10;;;;;;;3.72;0.80;;;;;;;;;;5004566;28;20022;-80
2023/01/12 04:14:37;;;;;;;7.80;1.17;;;;;;;;;;5001518;28;20442;-78
2023/01/12 04:17:03;;;;;;;5.68;0.70;;;;;;;;;;5006198;28;20018;-79
2023/01/12 04:19:29;;;;;;;8.18;1.17;;;;;;;;;;5017868;28;20045;-80
2023/01/12 04:24:40;;;;;;;1.15;0.45;;;;;;;;;;5017244;28;20414;-79
2023/01/12 04:27:06;;;;;;;3.95;1.25;;;;;;;;;;5004514;28;20033;-80
2023/01/12 04:29:33;;;;;;;5.78;0.80;;;;;;;;;;5017632;28;20104;-79
2023/01/12 04:31:59;;;;;;;1.00;0.57;;;;;;;;;;5018490;28;20429;-80
2023/01/12 04:34:25;;;;;;;3.22;0.75;;;;;;;;;;5017123;28;20032;-79
2023/01/12 04:36:51;;;;;;;6.28;1.58;;;;;;;;;;5019822;28;20034;-79
2023/01/12 04:39:17;;;;;;;7.18;1.38;;;;;;;;;;4998058;28;20037;-80
2023/01/12 04:41:43;;;;;;;2.92;0.90;;;;;;;;;;4999131;28;20026;-80
2023/01/12 04:44:09;;;;;;;4.50;0.90;;;;;;;;;;4998546;28;20026;-80
2023/01/12 04:46:35;;;;;;;6.03;0.75;;;;;;;;;;4999123;28;20030;-80
2023/01/12 04:49:01;;;;;;;11.32;1.35;;;;;;;;;;5010813;28;20036;-79
2023/01/12 04:51:27;;;;;;;2.00;1.30;;;;;;;;;;5023146;28;20376;-80
2023/01/12 04:53:53;;;;;;;3.30;1.08;;;;;;;;;;5038725;28;20021;-80
2023/01/12 04:56:19;;;;;;;3.22;0.70;;;;;;;;;;5008995;28;20061;-80
2023/01/12 04:58:46;;;;;;;2.08;0.80;;;;;;;;;;4999957;28;20022;-80
2023/01/12 05:01:13;;;;;;;4.15;0.52;;;;;;;;;;5014741;28;20030;-79
2023/01/12 05:03:39;;;;;;;3.70;0.55;;;;;;;;;;4998956;28;20440;-80
2023/01/12 05:06:05;;;;;;;3.30;0.45;;;;;;;;;;5001901;28;20022;-79
2023/01/12 05:11:16;;;;;;;3.92;1.25;;;;;;;;;;4980156;28;20061;-79
2023/01/12 05:13:42;;;;;;;2.53;0.57;;;;;;;;;;4984135;28;20121;-78
2023/01/12 05:16:09;;;;;;;3.30;0.82;;;;;;;;;;4993976;28;20030;-81
2023/01/12 05:18:36;;;;;;;4.60;0.95;;;;;;;;;;4984513;28;20022;-78
2023/01/12 05:21:02;;;;;;;3.22;0.90;;;;;;;;;;5038020;28;20014;-79
2023/01/12 05:23:28;;;;;;;3.35;0.90;;;;;;;;;;5025688;28;20479;-80
2023/01/12 05:25:57;;;;;;;4.10;0.70;;;;;;;;;;5009182;28;20076;-80
2023/01/12 05:28:23;;;;;;;3.10;0.70;;;;;;;;;;4997561;28;20038;-81
2023/01/12 05:30:50;;;;;;;2.53;0.90;;;;;;;;;;4999795;28;20034;-81
2023/01/12 05:33:18;;;;;;;5.50;0.93;;;;;;;;;;5014395;28;20026;-82
2023/01/12 05:35:44;;;;;;;7.65;0.95;;;;;;;;;;4999464;28;20498;-82
2023/01/12 05:38:10;;;;;;;3.42;0.98;;;;;;;;;;5013807;28;20124;-80
2023/01/12 05:40:36;;;;;;;2.83;0.90;;;;;;;;;;4997469;28;20034;-82
2023/01/12 05:45:47;;;;;;;4.43;0.80;;;;;;;;;;5003482;28;20502;-81
2023/01/12 05:48:13;;;;;;;8.13;0.93;;;;;;;;;;5014328;28;20026;-81
2023/01/12 05:50:39;;;;;;;3.45;0.80;;;;;;;;;;5022191;28;20034;-81
2023/01/12 05:53:18;;;;;;;4.38;0.60;;;;;;;;;;5040123;28;20033;-82
2023/01/12 05:55:44;;;;;;;2.13;0.60;;;;;;;;;;5020824;28;20094;-83
2023/01/12 05:58:16;;;;;;;2.28;0.75;;;;;;;;;;5004001;28;20048;-82
2023/01/12 06:00:42;;;;;;;;;;;;;;;;;;5022431;28;20022;-84
2023/01/12 06:03:18;;;;;;;7.35;0.52;;;;;;;;;;5021562;28;20441;-84
2023/01/12 06:05:51;;;;;;;3.55;0.80;;;;;;;;;;5010688;28;20042;-81
2023/01/12 06:08:22;;;;;;;5.88;0.88;;;;;;;;;;4997685;28;20035;-83
2023/01/12 06:10:49;;;;;;;7.10;1.48;;;;;;;;;;5031467;28;20072;-84
2023/01/12 06:16:03;;;;;;;5.25;0.75;;;;;;;;;;5006605;28;20072;-83
2023/01/12 06:18:40;;;;;;;4.97;0.70;;;;;;;;;;5037896;28;20021;-82
2023/01/12 06:21:12;;;;;;;6.55;0.93;;;;;;;;;;4984469;28;20031;-84
2023/01/12 06:23:38;;;;;;;6.38;1.25;;;;;;;;;;4993618;28;20380;-84
2023/01/12 06:26:13;;;;;;;3.20;0.70;;;;;;;;;;5016587;28;20041;-84
2023/01/12 06:28:45;;;;;;;2.45;0.73;;;;;;;;;;5020717;28;20073;-83
2023/01/12 06:31:17;;;;;;;6.90;1.23;;;;;;;;;;5034295;28;20030;-84
2023/01/12 06:33:52;;;;;;;6.78;1.77;;;;;;;;;;5008251;28;20054;-83
2023/01/12 06:36:36;;;;;;;3.65;1.13;;;;;;;;;;5028883;28;20034;-84
2023/01/12 06:39:11;;;;;;;8.50;2.15;;;;;;;;;;5002635;28;20023;-85
2023/01/12 06:44:22;;;;;;;3.95;0.80;;;;;;;;;;5002515;28;20062;-84
2023/01/12 06:46:48;;;;;;;5.30;1.33;;;;;;;;;;5002783;28;20045;-83
2023/01/12 06:49:17;;;;;;;7.82;0.90;;;;;;;;;;5003098;28;20033;-82
2023/01/12 06:51:43;;;;;;;5.65;1.42;;;;;;;;;;5002474;28;20359;-83
2023/01/12 06:54:09;;;;;;;4.75;1.35;;;;;;;;;;5002979;28;20118;-82
2023/01/12 06:56:35;;;;;;;5.55;1.20;;;;;;;;;;5004507;28;20031;-82
2023/01/12 06:59:01;;;;;;;3.22;1.05;;;;;;;;;;5000701;28;20138;-82
2023/01/12 07:01:27;;;;;;;4.90;1.00;;;;;;;;;;5002839;28;20026;-83
2023/01/12 07:03:53;;;;;;;5.57;1.08;;;;;;;;;;5003610;28;20018;-82
2023/01/12 07:06:20;;;;;;;5.63;1.05;;;;;;;;;;5003080;28;20333;-83
2023/01/12 07:08:46;;;;;;;5.18;0.93;;;;;;;;;;5004200;28;20472;-81
2023/01/12 07:11:13;;;;;;;7.03;0.73;;;;;;;;;;5003635;28;20104;-83
2023/01/12 07:13:39;;;;;;;4.22;1.27;;;;;;;;;;5003230;28;20019;-82
2023/01/12 07:16:06;;;;;;;3.95;0.85;;;;;;;;;;5004912;28;20041;-82
2023/01/12 07:18:32;;;;;;;5.90;0.70;;;;;;;;;;5003690;28;20030;-82
2023/01/12 07:21:01;;;;;;;4.35;0.90;;;;;;;;;;5003685;28;20198;-82
2023/01/12 07:23:27;;;;;;;2.78;0.80;;;;;;;;;;5034557;22;20116;-81
2023/01/12 07:25:56;;;;;;;7.35;1.10;;;;;;;;;;5042657;28;20029;-82
2023/01/12 07:28:22;;;;;;;6.80;1.00;;;;;;;;;;5070457;28;20028;-81
2023/01/12 07:30:48;;;;;;;5.95;0.75;;;;;;;;;;5054598;28;20080;-81
2023/01/12 07:33:14;;;;;;;6.60;1.10;;;;;;;;;;5046699;28;20048;-81
2023/01/12 07:35:41;;;;;;;2.45;0.93;;;;;;;;;;5039830;28;20492;-81
2023/01/12 07:38:07;;;;;;;6.43;0.95;;;;;;;;;;5046427;28;20088;-82
2023/01/12 07:40:34;;;;;;;3.13;1.13;;;;;;;;;;5052675;28;20032;-80
2023/01/12 07:43:01;;;;;;;2.95;0.75;;;;;;;;;;5053384;28;20055;-81
2023/01/12 07:45:28;;;;;;;6.97;0.88;;;;;;;;;;5054004;28;20029;-81
2023/01/12 07:47:55;;;;;;;5.97;1.10;;;;;;;;;;5055221;28;20079;-80
2023/01/12 07:50:21;;;;;;;10.23;1.45;;;;;;;;;;5055739;28;20013;-83
2023/01/12 07:52:48;;;;;;;5.38;1.02;;;;;;;;;;5056243;28;20085;-82
2023/01/12 07:55:18;;;;;;;6.13;1.15;;;;;;;;;;5055663;28;20034;-82
2023/01/12 07:57:53;;;;;;;7.07;1.30;;;;;;;;;;5055541;28;20028;-80
2023/01/12 08:00:22;;;;;;;4.50;0.88;;;;;;;;;;5050767;28;20032;-79
2023/01/12 08:02:48;;;;;;;2.25;0.90;;;;;;;;;;5047732;28;20112;-80
2023/01/12 08:05:14;;;;;;;5.00;0.85;;;;;;;;;;5060243;28;20057;-80
2023/01/12 08:07:40;;;;;;;6.13;1.45;;;;;;;;;;5067086;28;20029;-82
2023/01/12 08:10:06;;;;;;;5.20;1.10;;;;;;;;;;5040158;28;20453;-81
2023/01/12 08:12:34;;;;;;;5.80;1.40;;;;;;;;;;5039472;28;20017;-81
2023/01/12 08:15:02;;;;;;;5.72;1.30;;;;;;;;;;5053557;28;20172;-81
2023/01/12 08:17:29;;;;;;;6.72;1.00;;;;;;;;;;5038173;28;20025;-81
2023/01/12 08:19:58;;;;;;;6.35;1.33;;;;;;;;;;5055861;28;20468;-81
2023/01/12 08:22:28;;;;;;;4.20;0.82;;;;;;;;;;5040819;28;20044;-80
2023/01/12 08:25:32;;;;;;;;;;;;;;;;;;;;;
2023/01/12 08:28:02;;;;;;;4.32;1.05;;;;;;;;;;5040825;28;20507;-84
2023/01/12 08:30:29;;;;;;;7.03;1.10;;;;;;;;;;5039184;28;20029;-81
2023/01/12 08:32:56;;;;;;;6.47;1.60;;;;;;;;;;5040250;28;20052;-81
2023/01/12 08:35:25;;;;;;;4.15;1.05;;;;;;;;;;5038676;28;20038;-80
2023/01/12 08:37:51;;;;;;;7.88;0.95;;;;;;;;;;5046306;28;20091;-81
2023/01/12 08:40:18;;;;;;;9.00;0.98;;;;;;;;;;5054698;28;20097;-80
2023/01/12 08:42:44;;;;;;;6.45;1.02;;;;;;;;;;5053334;28;20577;-81
2023/01/12 08:45:10;;;;;;;4.30;0.80;;;;;;;;;;5038127;28;20029;-81
2023/01/12 08:47:36;;;;;;;2.28;1.10;;;;;;;;;;5040460;28;20036;-81
2023/01/12 08:50:03;;;;;;;9.95;1.40;;;;;;;;;;5039020;28;20029;-81
2023/01/12 08:52:31;;;;;;;4.10;1.17;;;;;;;;;;5039160;28;20081;-81
2023/01/12 08:54:58;;;;;;;3.08;1.15;;;;;;;;;;5037613;28;20029;-81
2023/01/12 08:57:25;;;;;;;6.05;1.13;;;;;;;;;;5044796;28;20095;-81
2023/01/12 08:59:51;;;;;;;5.95;0.90;;;;;;;;;;5047934;28;20021;-80
2023/01/12 09:02:17;;;;;;;3.10;1.00;;;;;;;;;;5039994;28;20029;-82
2023/01/12 09:04:43;;;;;;;3.33;0.98;;;;;;;;;;5037760;28;20108;-81
2023/01/12 09:07:10;;;;;;;5.10;1.30;;;;;;;;;;5037810;28;20021;-82
2023/01/12 09:09:36;;;;;;;3.47;1.27;;;;;;;;;;5040522;28;20033;-81
2023/01/12 09:12:03;;;;;;;3.25;1.13;;;;;;;;;;5037204;28;20044;-82
2023/01/12 09:14:29;;;;;;;3.00;1.10;;;;;;;;;;5037215;28;20415;-81
2023/01/12 09:16:58;;;;;;;8.02;2.13;;;;;;;;;;5053651;28;20030;-82
2023/01/12 09:19:24;;;;;;;2.60;1.70;;;;;;;;;;5052254;28;20116;-81
2023/01/12 09:21:50;;;;;;;4.50;1.00;;;;;;;;;;5037683;28;20122;-82
2023/01/12 09:24:16;;;;;;;6.65;1.20;;;;;;;;;;5053810;28;20029;-81
2023/01/12 09:26:43;;;;;;;4.07;1.50;;;;;;;;;;5038855;28;20037;-82
2023/01/12 09:29:10;;;;;;;3.53;1.90;;;;;;;;;;5038944;28;20459;-82
2023/01/12 09:31:38;;;;;;;8.32;3.22;;;;;;;;;;5038258;28;20083;-81
2023/01/12 09:34:04;;;;;;;4.40;1.90;;;;;;;;;;5053616;28;20486;-82
2023/01/12 09:36:31;;;;;;;8.55;2.40;;;;;;;;;;5055395;28;20041;-83
2023/01/12 09:38:57;;;;;;;3.53;1.23;;;;;;;;;;5037478;28;20013;-82
2023/01/12 09:47:16;;;;;;;3.85;1.40;;;;;;;;;;5034982;28;20041;-82
2023/01/12 09:49:44;;;;;;;5.65;2.17;;;;;;;;;;5041653;28;20173;-82
2023/01/12 09:52:11;;;;;;;4.53;1.67;;;;;;;;;;5057251;28;20048;-82
2023/01/12 09:54:37;;;;;;;4.28;1.90;;;;;;;;;;5041318;28;20021;-83
2023/01/12 09:57:12;;;;;;;4.25;1.30;;;;;;;;;;5041319;28;20025;-83
2023/01/12 09:59:57;;;;;;;4.30;1.42;;;;;;;;;;5040716;28;20021;-82
2023/01/12 10:02:24;;;;;;;8.25;1.13;;;;;;;;;;5069707;28;20093;-80
2023/01/12 10:04:51;;;;;;;2.38;0.73;;;;;;;;;;5067509;28;20029;-80
2023/01/12 10:07:18;;;;;;;3.78;0.90;;;;;;;;;;5056209;28;20067;-82
2023/01/12 10:09:45;;;;;;;2.90;0.90;;;;;;;;;;5050568;28;20136;-83
2023/01/12 10:12:11;;;;;;;5.53;1.15;;;;;;;;;;5058121;28;20033;-83
2023/01/12 10:14:49;;;;;;;6.47;1.40;;;;;;;;;;5041594;28;20021;-82
2023/01/12 10:17:18;;;;;;;5.82;1.45;;;;;;;;;;5058601;28;20025;-82
2023/01/12 10:19:53;;;;;;;3.20;1.10;;;;;;;;;;5056651;28;20013;-84
2023/01/12 10:22:37;;;;;;;2.83;0.90;;;;;;;;;;5060893;28;20021;-83
2023/01/12 10:25:22;;;;;;;5.53;0.95;;;;;;;;;;5055531;28;20083;-83
2023/01/12 10:27:49;;;;;;;3.22;0.90;;;;;;;;;;5041209;28;20028;-84
2023/01/12 10:30:25;;;;;;;3.33;0.90;;;;;;;;;;5056340;28;20169;-84
2023/01/12 10:32:52;;;;;;;7.97;1.05;;;;;;;;;;5057818;28;20025;-83
2023/01/12 10:35:19;;;;;;;4.13;1.10;;;;;;;;;;5048030;28;20052;-83
2023/01/12 10:37:47;;;;;;;5.75;1.20;;;;;;;;;;5073454;28;20045;-83
2023/01/12 10:40:34;;;;;;;3.38;0.80;;;;;;;;;;5066129;28;20089;-82
2023/01/12 10:43:18;;;;;;;2.90;1.02;;;;;;;;;;5079863;28;20047;-83
2023/01/12 10:45:44;;;;;;;5.90;1.00;;;;;;;;;;5056267;28;20048;-84
2023/01/12 10:48:20;;;;;;;8.20;1.10;;;;;;;;;;5048797;28;20033;-85
2023/01/12 10:50:57;;;;;;;2.30;0.90;;;;;;;;;;5059365;28;20029;-85
2023/01/12 10:53:27;;;;;;;2.40;0.88;;;;;;;;;;5058729;28;20044;-83
2023/01/12 10:55:53;;;;;;;4.95;0.80;;;;;;;;;;5059262;28;20032;-83
2023/01/12 10:58:22;;;;;;;2.85;0.80;;;;;;;;;;5043429;28;20307;-83
2023/01/12 11:00:48;;;;;;;3.00;0.55;;;;;;;;;;5057908;28;20159;-83
2023/01/12 11:03:44;;;;;;;1.95;0.70;;;;;;;;;;5058543;28;20029;-82
2023/01/12 11:06:14;;;;;;;1.95;0.88;;;;;;;;;;5019782;28;20037;-82
2023/01/12 11:08:40;;;;;;;2.92;0.93;;;;;;;;;;5057175;28;20029;-83
2023/01/12 11:11:26;;;;;;;1.70;0.73;;;;;;;;;;5056749;28;20053;-83
2023/01/12 11:13:53;;;;;;;3.40;0.80;;;;;;;;;;5061640;28;20025;-83
2023/01/12 11:16:19;;;;;;;1.55;0.75;;;;;;;;;;5062185;28;20030;-83
2023/01/12 11:19:04;;;;;;;6.22;1.00;;;;;;;;;;5043158;28;20030;-83
2023/01/12 11:21:34;;;;;;;2.65;1.02;;;;;;;;;;5043255;28;20025;-83
2023/01/12 11:24:04;;;;;;;1.38;0.65;;;;;;;;;;5042522;28;20033;-83
2023/01/12 11:26:33;;;;;;;1.05;0.70;;;;;;;;;;5056939;28;20036;-82
2023/01/12 11:29:01;;;;;;;4.47;0.90;;;;;;;;;;5041319;28;20045;-83
2023/01/12 11:31:34;;;;;;;1.42;0.73;;;;;;;;;;5055093;28;20405;-81
2023/01/12 11:34:00;;;;;;;2.58;0.98;;;;;;;;;;5041967;28;20106;-82
2023/01/12 11:36:34;;;;;;;3.10;0.85;;;;;;;;;;5041286;28;20030;-81
2023/01/12 11:39:00;;;;;;;3.80;0.93;;;;;;;;;;5054206;28;20025;-83
2023/01/12 11:43:47;;;;;;;2.08;0.52;;;;;;;;;;5061175;28;20032;-83
2023/01/12 11:44:36;;;;;;;1.95;0.88;;;;;;;;;;5052754;28;20129;-83
2023/01/12 11:47:07;;;;;;;4.72;1.48;;;;;;;;;;5071006;28;20101;-83
2023/01/12 11:49:52;;;;;;;2.53;1.00;;;;;;;;;;5054727;28;20071;-81
2023/01/12 11:52:18;;;;;;;2.05;0.93;;;;;;;;;;5049844;28;20064;-82
2023/01/12 11:57:26;;;;;;;;;;;;;;;;;;5088305;28;20060;-82
2023/01/12 12:00:27;;;;;;;2.42;0.60;;;;;;;;;;5090743;28;19920;-80
2023/01/12 12:03:12;;;;;;;5.22;0.95;;;;;;;;;;5075856;28;20051;-83
2023/01/12 12:06:14;;;;;;;4.20;1.33;;;;;;;;;;5049816;28;20549;-81
2023/01/12 12:21:33;;;;;;;2.90;0.95;;;;;;;;;;4990107;28;20033;-82
2023/01/12 12:24:17;;;;;;;1.80;0.90;;;;;;;;;;4975092;28;20031;-81
2023/01/12 12:26:47;;;;;;;2.72;0.88;;;;;;;;;;4999450;28;20042;-81
2023/01/12 12:29:13;;;;;;;4.13;1.17;;;;;;;;;;5061294;28;20048;-81
2023/01/12 12:31:54;;;;;;;3.80;0.70;;;;;;;;;;5061748;28;20024;-81
2023/01/12 12:34:32;;;;;;;1.13;0.50;;;;;;;;;;5049964;28;20040;-82
2023/01/12 12:37:05;;;;;;;4.93;0.77;;;;;;;;;;5043138;28;20029;-82
2023/01/12 12:39:37;;;;;;;5.03;1.23;;;;;;;;;;5060440;28;20033;-83
2023/01/12 12:45:16;;;;;;;3.78;0.80;;;;;;;;;;5060436;28;20028;-83
2023/01/12 12:47:57;;;;;;;0.98;0.50;;;;;;;;;;5059893;28;20385;-80
2023/01/12 12:50:46;;;;;;;4.78;0.98;;;;;;;;;;5061516;28;20084;-81
2023/01/12 12:53:12;;;;;;;2.88;0.70;;;;;;;;;;5063647;28;20033;-82
2023/01/12 12:55:39;;;;;;;1.63;0.90;;;;;;;;;;5044111;28;20055;-81
2023/01/12 12:58:25;;;;;;;4.93;0.82;;;;;;;;;;5072946;28;20037;-82
2023/01/12 13:00:53;;;;;;;2.20;0.90;;;;;;;;;;5065158;28;20032;-81
2023/01/12 13:15:06;;;;;;;;;;;;;;;;;;;;;
2023/01/12 16:04:23;;;;;;;2.10;0.50;;;;;;;;;;4362100;26;20050;-87
2023/01/12 17:09:54;;;;;;;2.28;0.80;;;;;;;;;;4731645;22;20046;-81
2023/01/12 17:12:20;;;;;;;2.95;0.60;;;;;;;;;;5034406;28;20053;-79
2023/01/12 17:14:46;;;;;;;2.95;1.00;;;;;;;;;;5030624;28;20043;-81
2023/01/12 17:17:12;;;;;;;2.67;0.70;;;;;;;;;;5054285;28;20025;-79
2023/01/12 17:19:41;;;;;;;4.55;0.95;;;;;;;;;;5055058;28;20152;-82
2023/01/12 17:22:08;;;;;;;2.30;0.63;;;;;;;;;;5049409;28;20033;-82
2023/01/12 18:14:01;;;;;;;;;;;;;;;;;;5041899;28;19963;-82
2023/01/12 18:16:36;;;;;;;;;;;;;;;;;;5030176;28;19916;-82
2023/01/12 18:19:19;;;;;;;;;;;;;;;;;;5059232;28;19917;-81
2023/01/12 18:21:45;;;;;;;;;;;;;;;;;;5058850;28;19940;-81
2023/01/12 18:24:23;;;;;;;;;;;;;;;;;;;;;
2023/01/12 18:26:50;;;;;;;;;;;;;;;;;;5056335;28;19928;-82
2023/01/12 18:29:16;;;;;;;;;;;;;;;;;;5054937;28;19968;-82
2023/01/12 18:31:42;;;;;;;;;;;;;;;;;;5053380;28;19914;-81
2023/01/12 18:34:08;;;;;;;;;;;;;;;;;;5038012;28;19901;-81
2023/01/12 18:36:34;;;;;;;;;;;;;;;;;;5042789;28;19930;-81
2023/01/12 18:39:00;;;;;;;;;;;;;;;;;;5020709;28;19905;-81
2023/01/12 18:44:10;;;;;;;;;;;;;;;;;;5027973;28;20008;-82
2023/01/12 18:49:21;;;;;;;;;;;;;;;;;;5050788;28;20479;-82
2023/01/12 18:54:33;;;;;;;;;;;;;;;;;;5050744;28;20140;-83
2023/01/12 18:56:59;;;;;;;;;;;;;;;;;;5029870;28;19973;-82
2023/01/12 18:59:27;;;;;;;;;;;;;;;;;;5020198;28;19909;-81
2023/01/12 19:01:53;;;;;;;;;;;;;;;;;;5054518;28;20035;-81
2023/01/12 19:04:30;;;;;;;;;;;;;;;;;;5048912;28;19936;-83
2023/01/12 19:06:59;;;;;;;;;;;;;;;;;;5038737;28;19916;-82
2023/01/12 19:09:34;;;;;;;;;;;;;;;;;;5052059;28;19913;-82
2023/01/12 19:12:00;;;;;;;;;;;;;;;;;;5022357;28;19918;-82
2023/01/12 19:17:26;;;;;;;;;;;;;;;;;;5019410;28;19970;-84
2023/01/12 19:19:52;;;;;;;;;;;;;;;;;;5031995;28;19924;-83
2023/01/12 19:30:34;;;;;;;;;;;;;;;;;;5038856;28;19947;-82
2023/01/12 19:33:03;;;;;;;;;;;;;;;;;;5033158;28;19905;-82
2023/01/12 19:35:29;;;;;;;;;;;;;;;;;;5041043;28;20361;-82
2023/01/12 19:37:55;;;;;;;;;;;;;;;;;;5006968;28;19914;-84
2023/01/12 19:40:31;;;;;;;;;;;;;;;;;;5025015;28;19913;-82
2023/01/12 19:43:13;;;;;;;;;;;;;;;;;;5023414;28;19939;-82
2023/01/12 19:45:39;;;;;;;;;;;;;;;;;;5021884;28;19945;-82
2023/01/12 19:48:06;;;;;;;;;;;;;;;;;;5040620;28;19955;-82
2023/01/12 19:50:32;;;;;;;;;;;;;;;;;;5029325;28;19959;-83
2023/01/12 19:52:58;;;;;;;;;;;;;;;;;;5023527;28;19910;-83
2023/01/12 19:55:24;;;;;;;;;;;;;;;;;;5034893;28;19909;-82
2023/01/12 19:57:50;;;;;;;;;;;;;;;;;;5006654;28;20332;-82
2023/01/12 20:00:16;;;;;;;;;;;;;;;;;;5021055;23;19929;-79
2023/01/12 20:02:42;;;;;;;;;;;;;;;;;;4984965;28;19907;-78
2023/01/12 20:05:09;;;;;;;;;;;;;;;;;;4980089;28;20308;-78
2023/01/12 20:07:35;;;;;;;;;;;;;;;;;;4983398;28;19914;-78
2023/01/12 20:10:01;;;;;;;;;;;;;;;;;;5000200;28;19918;-78
2023/01/12 20:12:27;;;;;;;;;;;;;;;;;;4997265;28;19906;-78
2023/01/12 20:14:53;;;;;;;;;;;;;;;;;;5000883;28;19906;-78
2023/01/12 20:17:19;;;;;;;;;;;;;;;;;;4989019;28;19918;-77
2023/01/12 20:19:46;;;;;;;;;;;;;;;;;;4985721;28;20322;-79
2023/01/12 20:22:12;;;;;;;;;;;;;;;;;;4991420;28;20000;-78
2023/01/12 20:24:38;;;;;;;;;;;;;;;;;;4991627;28;19991;-77
2023/01/12 20:27:04;;;;;;;;;;;;;;;;;;4991631;28;19910;-77
2023/01/12 20:29:30;;;;;;;;;;;;;;;;;;4989939;28;19914;-78
2023/01/12 20:31:56;;;;;;;;;;;;;;;;;;4987677;28;20057;-79
2023/01/12 20:34:21;;;;;;;;;;;;;;;;;;4991972;28;19909;-79
2023/01/12 20:36:47;;;;;;;;;;;;;;;;;;4994212;28;19945;-79
2023/01/12 20:39:13;;;;;;;;;;;;;;;;;;4986278;28;20012;-77
2023/01/12 20:41:39;;;;;;;;;;;;;;;;;;4985474;28;19906;-79
2023/01/12 20:44:05;;;;;;;;;;;;;;;;;;4984509;28;19906;-77
2023/01/12 20:46:31;;;;;;;;;;;;;;;;;;4984308;28;20361;-79
2023/01/12 20:48:59;;;;;;;;;;;;;;;;;;4987365;28;19934;-79
2023/01/12 20:51:25;;;;;;;;;;;;;;;;;;4986455;28;19933;-79
2023/01/12 20:53:51;;;;;;;;;;;;;;;;;;4984724;28;19910;-78
2023/01/12 20:56:17;;;;;;;;;;;;;;;;;;4983099;28;19898;-78
2023/01/12 20:58:43;;;;;;;;;;;;;;;;;;4987046;28;20662;-79
2023/01/12 21:01:12;;;;;;;;;;;;;;;;;;4986057;28;20279;-78
2023/01/12 21:03:38;;;;;;;;;;;;;;;;;;4985124;28;19910;-78
2023/01/12 21:06:04;;;;;;;;;;;;;;;;;;4998187;28;20354;-78
2023/01/12 21:08:30;;;;;;;;;;;;;;;;;;4989654;28;19960;-78
2023/01/12 21:10:56;;;;;;;;;;;;;;;;;;4987942;28;20295;-78
2023/01/12 21:13:22;;;;;;;;;;;;;;;;;;4989462;28;19964;-78
2023/01/12 21:15:48;;;;;;;;;;;;;;;;;;4991116;28;19913;-77
2023/01/12 21:18:14;;;;;;;;;;;;;;;;;;4992521;28;20033;-79
2023/01/12 21:20:40;;;;;;;;;;;;;;;;;;4992928;28;19969;-80
2023/01/12 21:23:06;;;;;;;;;;;;;;;;;;4985805;28;19906;-80